Axis, AL (36505)

11:41 PM CDT on May 27, 2017 (GMT -0500)
Spanish Trace | | Change Station

Elev 69 ft 30.83 °N, 88.11 °W | Updated 11 minutes ago

Mostly Cloudy
Mostly Cloudy
74.7 °F
Feels Like 72 °F
N
2.7
Wind Variable Wind from SSE

Today
High -- | Low -- °F
--% Chance of Precip.
Yesterday
High -- | Low -- °F
Precip. -- in
Pressure 29.98 in
Visibility 10.0 miles
Clouds Scattered Clouds 1300 ft
Heat Index 72 °F
Dew Point 74 °F
Humidity 97%
Rainfall 0.00 in
Snow Depth Not available.
5:50 AM 7:48 PM
Waxing Crescent, 8% visible
SPECI KMOB 280409Z AUTO 18007KT 10SM SCT013 26/23 A2998 RMK AO2 T02560233
Pressure 29.98 in
Visibility 10.0 miles
Clouds Scattered Clouds 1300 ft
Heat Index 72 °F
Dew Point 74 °F
Humidity 97%
Rainfall 0.00 in
Snow Depth Not available.
5:50 AM 7:48 PM
Waxing Crescent, 8% visible
SPECI KMOB 280409Z AUTO 18007KT 10SM SCT013 26/23 A2998 RMK AO2 T02560233

Get Severe Weather Alerts

Thanks for signing up!

Be on the lookout for a verification email in your inbox.

You'll start receiving the daily forecast at 6 AM.

×

10-Day Weather Forecast

Almanac

Astronomy

May. 27, 2017 Rise Set
Actual Time
Civil Twilight
Nautical Twilight
Astronomical Twilight
Moon
Length of Visible Light
Length of Day
Tomorrow will be .
, % of the Moon is Illuminated

Today's Extremes

State Highs State Lows

Community

WunderPhotos

Category 6

Welcome to Category 6. This is the collective home for Weather Underground's featured writeups by Dr. Jeff Masters (right), Bob Henson (left), Chris Burt, and other regular contributors.

Nearby

Air Quality

  Air Quality AQ Index Pollutant
Not available.

Snow Depth

Station Depth Elevation

Earthquake Activity

City Distance Mag. Time & Date
Minimum magnitude displayed is 2.5.

Coastal Water Temperatures

Place Temperature

Stations

Nearby Weather Stations

Station Location Temp. Windchill Dew Point Humidity Wind Precip. Elev Updated Type
                   

Watches & Warnings

There are currently no watches in effect.